createdAt,value
2023-08-08T00:00:13.028Z,25.05
2023-08-08T00:02:44.240Z,25.06
2023-08-08T00:05:12.428Z,25.06
2023-08-08T00:07:42.568Z,25.09
2023-08-08T00:10:10.994Z,25.09
2023-08-08T00:12:44.253Z,25.11
2023-08-08T00:15:12.448Z,25.09
2023-08-08T00:17:43.536Z,25.06
2023-08-08T00:20:12.684Z,25.04
2023-08-08T00:22:44.026Z,25.02
2023-08-08T00:25:45.611Z,24.95
2023-08-08T00:28:45.291Z,24.90
2023-08-08T00:39:54.966Z,24.60
2023-08-08T00:42:55.165Z,24.48
2023-08-08T00:45:55.079Z,24.38
2023-08-08T00:51:44.647Z,24.16
2023-08-08T00:54:15.961Z,24.08
2023-08-08T00:56:55.233Z,24.01
2023-08-08T00:59:45.017Z,23.95
2023-08-08T01:02:14.896Z,23.89
2023-08-08T01:04:46.100Z,23.79
2023-08-08T01:07:45.662Z,23.70
2023-08-08T01:10:54.417Z,23.64
2023-08-08T01:13:56.486Z,23.57
2023-08-08T01:16:46.143Z,23.49
2023-08-08T01:25:17.664Z,23.21
2023-08-08T01:27:51.271Z,23.09
2023-08-08T01:30:19.758Z,23.01
2023-08-08T01:32:47.992Z,22.86
2023-08-08T01:35:15.968Z,22.68
2023-08-08T01:37:53.277Z,22.50
2023-08-08T01:40:45.677Z,22.36
2023-08-08T01:46:17.351Z,22.17
2023-08-08T01:48:49.587Z,22.09
2023-08-08T01:51:17.538Z,22.05
2023-08-08T01:53:46.393Z,22.03
2023-08-08T01:56:17.420Z,21.97
2023-08-08T02:01:19.073Z,21.87
2023-08-08T02:03:47.113Z,21.74
2023-08-08T02:06:17.957Z,21.62
2023-08-08T02:08:49.497Z,21.50
2023-08-08T02:11:17.467Z,21.39
2023-08-08T02:13:47.894Z,21.32
2023-08-08T02:16:18.985Z,21.22
2023-08-08T02:18:46.957Z,21.12
2023-08-08T02:21:17.064Z,21.01
2023-08-08T02:23:48.316Z,20.90
2023-08-08T02:26:19.562Z,20.81
2023-08-08T02:28:47.644Z,20.69
2023-08-08T02:34:18.576Z,20.52
2023-08-08T02:36:49.474Z,20.43
2023-08-08T02:39:17.795Z,20.35
2023-08-08T02:41:48.804Z,20.32
2023-08-08T02:44:17.168Z,20.22
2023-08-08T02:49:19.896Z,20.05
2023-08-08T02:51:48.077Z,19.93
2023-08-08T02:54:19.434Z,19.87
2023-08-08T02:56:50.417Z,19.78
2023-08-08T02:59:18.800Z,19.70
2023-08-08T03:01:49.827Z,19.61
2023-08-08T03:04:20.998Z,19.51
2023-08-08T03:06:48.990Z,19.37
2023-08-08T03:09:19.035Z,19.27
2023-08-08T03:14:19.936Z,19.09
2023-08-08T03:16:51.120Z,19.04
2023-08-08T03:19:19.192Z,18.94
2023-08-08T03:21:50.492Z,18.85
2023-08-08T03:24:19.466Z,18.78
2023-08-08T03:26:51.007Z,18.69
2023-08-08T03:29:19.376Z,18.59
2023-08-08T03:31:50.165Z,18.59
2023-08-08T03:34:19.482Z,18.56
2023-08-08T03:36:50.570Z,18.48
2023-08-08T03:39:18.601Z,18.41
2023-08-08T03:41:46.637Z,18.38
2023-08-08T03:44:14.717Z,18.38
2023-08-08T03:46:42.700Z,18.34
2023-08-08T03:49:16.249Z,18.29
2023-08-08T03:54:56.432Z,18.16
2023-08-08T03:57:24.449Z,18.14
2023-08-08T03:59:52.571Z,18.09
2023-08-08T04:02:20.544Z,18.05
2023-08-08T04:04:50.821Z,18.04
2023-08-08T04:07:21.758Z,18.04
2023-08-08T04:09:50.933Z,18.06
2023-08-08T04:12:18.899Z,18.04
2023-08-08T04:14:52.956Z,18.03
2023-08-08T04:17:21.122Z,18.02
2023-08-08T04:19:52.966Z,17.98
2023-08-08T04:22:20.879Z,17.92
2023-08-08T04:24:51.941Z,17.92
2023-08-08T04:27:21.429Z,17.93
2023-08-08T04:29:52.524Z,17.92
2023-08-08T04:32:21.894Z,17.90
2023-08-08T04:34:53.173Z,17.90
2023-08-08T04:37:21.226Z,17.89
2023-08-08T04:39:51.947Z,17.87
2023-08-08T04:42:21.701Z,17.87
2023-08-08T04:47:23.505Z,17.83
2023-08-08T04:49:51.597Z,17.79
2023-08-08T04:52:25.019Z,17.77
2023-08-08T04:54:59.468Z,17.77
2023-08-08T05:03:53.005Z,17.71
2023-08-08T05:06:21.890Z,17.72
2023-08-08T05:12:04.350Z,17.73
2023-08-08T05:14:22.512Z,17.72
2023-08-08T05:16:53.365Z,17.72
2023-08-08T05:19:23.740Z,17.72
2023-08-08T05:21:52.728Z,17.74
2023-08-08T05:24:23.209Z,17.74
2023-08-08T05:26:51.385Z,17.70
2023-08-08T05:29:19.345Z,17.68
2023-08-08T05:31:53.983Z,17.68
2023-08-08T05:34:22.375Z,17.65
2023-08-08T05:36:56.191Z,17.60
2023-08-08T05:39:52.557Z,17.58
2023-08-08T05:42:24.965Z,17.55
2023-08-08T05:44:52.952Z,17.51
2023-08-08T05:47:24.654Z,17.48
2023-08-08T05:49:52.712Z,17.46
2023-08-08T05:52:24.604Z,17.45
2023-08-08T05:54:58.403Z,17.46
2023-08-08T05:57:26.369Z,17.45
2023-08-08T05:59:54.757Z,17.45
2023-08-08T06:02:22.837Z,17.41
2023-08-08T06:04:53.730Z,17.40
2023-08-08T06:07:23.443Z,17.38
2023-08-08T06:09:51.647Z,17.37
2023-08-08T06:12:23.429Z,17.38
2023-08-08T06:14:54.458Z,17.38
2023-08-08T06:17:25.539Z,17.37
2023-08-08T06:19:53.731Z,17.36
2023-08-08T06:22:24.465Z,17.37
2023-08-08T06:24:59.640Z,17.32
2023-08-08T06:27:27.592Z,17.32
2023-08-08T06:29:55.652Z,17.32
2023-08-08T06:32:23.762Z,17.33
2023-08-08T06:35:23.630Z,17.33
2023-08-08T06:49:24.566Z,17.30
2023-08-08T06:52:26.007Z,17.28
2023-08-08T07:00:54.908Z,17.29
2023-08-08T07:03:28.464Z,17.28
2023-08-08T07:06:24.055Z,17.26
2023-08-08T07:11:54.472Z,17.28
2023-08-08T07:14:26.489Z,17.24
2023-08-08T07:23:03.438Z,17.21
2023-08-08T07:25:31.408Z,17.16
2023-08-08T07:28:25.096Z,17.17
2023-08-08T07:31:24.772Z,17.18
2023-08-08T07:34:28.719Z,17.17
2023-08-08T07:37:24.667Z,17.14
2023-08-08T07:42:26.392Z,17.10
2023-08-08T07:44:55.817Z,17.11
2023-08-08T07:47:25.441Z,17.12
2023-08-08T07:56:10.793Z,17.00
2023-08-08T08:05:25.504Z,16.95
2023-08-08T08:10:37.257Z,16.93
2023-08-08T08:13:24.995Z,16.96
2023-08-08T08:15:56.525Z,16.94
2023-08-08T08:18:27.570Z,16.91
2023-08-08T08:20:55.688Z,16.96
2023-08-08T08:23:26.846Z,16.99
2023-08-08T08:31:25.738Z,16.98
2023-08-08T08:34:25.244Z,16.99
2023-08-08T08:42:31.566Z,16.97
2023-08-08T08:45:34.303Z,16.95
2023-08-08T08:48:26.944Z,16.91
2023-08-08T08:50:57.853Z,16.93
2023-08-08T08:53:28.452Z,16.93
2023-08-08T08:58:55.692Z,16.88
2023-08-08T09:04:25.361Z,16.83
2023-08-08T09:07:03.531Z,16.81
2023-08-08T09:09:34.097Z,16.79
2023-08-08T09:14:57.318Z,16.83
2023-08-08T09:17:46.211Z,16.84
2023-08-08T09:20:32.353Z,16.87
2023-08-08T09:30:56.047Z,16.95
2023-08-08T09:33:30.411Z,16.95
2023-08-08T09:35:58.406Z,16.95
2023-08-08T09:38:26.417Z,16.94
2023-08-08T09:40:57.533Z,16.88
2023-08-08T09:43:27.218Z,16.85
2023-08-08T09:45:56.459Z,16.83
2023-08-08T09:48:34.411Z,16.81
2023-08-08T09:51:26.333Z,16.83
2023-08-08T09:53:58.314Z,16.84
2023-08-08T09:57:02.261Z,16.83
2023-08-08T09:59:30.742Z,16.82
2023-08-08T10:01:59.517Z,16.83
2023-08-08T10:06:56.448Z,16.85
2023-08-08T10:09:27.237Z,16.79
2023-08-08T10:11:55.803Z,16.74
2023-08-08T10:14:32.604Z,16.71
2023-08-08T10:17:01.137Z,16.67
2023-08-08T10:19:29.172Z,16.67
2023-08-08T10:22:01.490Z,16.64
2023-08-08T10:24:34.992Z,16.64
2023-08-08T10:30:03.223Z,16.60
2023-08-08T10:32:31.343Z,16.56
2023-08-08T10:37:57.025Z,16.52
2023-08-08T10:40:34.453Z,16.50
2023-08-08T10:43:27.957Z,16.52
2023-08-08T10:46:07.654Z,16.52
2023-08-08T10:52:06.507Z,16.52
2023-08-08T10:54:35.874Z,16.55
2023-08-08T10:59:57.568Z,16.50
2023-08-08T11:02:28.660Z,16.48
2023-08-08T11:04:56.951Z,16.46
2023-08-08T11:09:59.971Z,16.45
2023-08-08T11:12:28.721Z,16.47
2023-08-08T11:14:59.698Z,16.45
2023-08-08T11:17:27.774Z,16.48
2023-08-08T11:19:58.902Z,16.50
2023-08-08T11:22:27.909Z,16.51
2023-08-08T11:25:05.038Z,16.51
2023-08-08T11:38:27.940Z,16.39
2023-08-08T11:40:57.643Z,16.37
2023-08-08T11:43:27.725Z,16.44
2023-08-08T11:45:58.759Z,16.50
2023-08-08T11:48:27.632Z,16.50
2023-08-08T11:50:55.666Z,16.48
2023-08-08T11:53:29.653Z,16.47
2023-08-08T11:55:59.425Z,16.48
2023-08-08T11:58:32.639Z,16.65
2023-08-08T12:01:40.875Z,16.84
2023-08-08T12:04:29.670Z,17.01
2023-08-08T12:10:01.387Z,17.17
2023-08-08T12:12:39.447Z,17.02
2023-08-08T12:15:40.266Z,16.98
2023-08-08T12:18:56.985Z,16.95
2023-08-08T12:21:28.322Z,16.95
2023-08-08T12:29:28.141Z,16.66
2023-08-08T12:31:59.575Z,16.50
2023-08-08T12:34:29.125Z,16.42
2023-08-08T12:36:59.832Z,16.31
2023-08-08T12:39:28.454Z,16.18
2023-08-08T12:44:31.690Z,16.04
2023-08-08T12:47:00.335Z,16.01
2023-08-08T12:49:38.506Z,15.91
2023-08-08T12:52:30.699Z,15.79
2023-08-08T12:54:59.947Z,15.74
2023-08-08T12:57:42.313Z,15.67
2023-08-08T13:00:42.233Z,15.57
2023-08-08T13:08:58.035Z,15.56
2023-08-08T13:11:29.403Z,15.51
2023-08-08T13:14:03.626Z,15.50
2023-08-08T13:17:04.105Z,15.56
2023-08-08T13:22:33.215Z,15.62
2023-08-08T13:25:06.616Z,15.57
2023-08-08T13:30:59.182Z,15.46
2023-08-08T13:33:33.439Z,15.51
2023-08-08T13:42:58.238Z,15.52
2023-08-08T13:48:24.700Z,15.54
2023-08-08T13:51:00.633Z,15.46
2023-08-08T15:53:33.592Z,15.23
2023-08-08T15:59:25.957Z,15.30
2023-08-08T16:13:28.891Z,15.32
2023-08-08T16:19:33.335Z,15.32
2023-08-08T16:25:33.590Z,15.38
2023-08-08T16:26:38.363Z,15.31
2023-08-08T16:28:30.745Z,15.41
2023-08-08T16:31:34.693Z,15.40
2023-08-08T16:34:36.047Z,15.41
2023-08-08T16:37:04.088Z,15.46
2023-08-08T16:39:32.096Z,15.49
2023-08-08T16:45:31.253Z,15.51
2023-08-08T16:47:59.706Z,15.59
2023-08-08T16:53:28.758Z,15.68
2023-08-08T17:00:35.653Z,15.76
2023-08-08T19:07:50.384Z,17.20
2023-08-08T19:10:35.873Z,17.25
2023-08-08T19:18:55.678Z,17.43
2023-08-08T19:22:39.261Z,17.53
2023-08-08T19:24:37.561Z,17.58
2023-08-08T19:27:31.471Z,17.58
2023-08-08T20:10:12.600Z,18.15
2023-08-08T20:14:02.176Z,18.27
2023-08-08T20:21:03.513Z,18.59
2023-08-08T20:43:29.660Z,19.10
2023-08-08T20:46:02.532Z,18.92
2023-08-08T21:01:33.933Z,18.59
2023-08-08T21:14:02.732Z,18.90
2023-08-08T21:20:03.210Z,18.95
2023-08-08T21:23:04.852Z,18.92
2023-08-08T21:26:01.749Z,18.82
2023-08-08T21:29:04.981Z,18.73
2023-08-08T21:34:14.293Z,18.45
2023-08-08T21:37:04.204Z,18.35
2023-08-08T21:39:32.509Z,18.18
2023-08-08T21:42:06.762Z,18.13
2023-08-08T21:47:34.859Z,18.06
2023-08-08T21:50:09.139Z,18.10
2023-08-08T21:53:03.373Z,18.12
2023-08-08T21:55:36.391Z,18.03
2023-08-08T22:11:01.932Z,18.00
2023-08-08T22:20:37.439Z,18.17
2023-08-08T22:27:12.380Z,18.29
2023-08-08T22:32:04.519Z,18.10
2023-08-08T22:34:32.915Z,18.08
2023-08-08T22:39:31.710Z,18.10
2023-08-08T22:42:12.201Z,18.17
2023-08-08T22:45:37.254Z,18.02
2023-08-08T22:48:13.027Z,18.04
2023-08-08T22:51:07.401Z,17.96
2023-08-08T22:57:17.900Z,18.28
2023-08-08T23:00:18.231Z,18.43
2023-08-08T23:07:08.091Z,18.72
2023-08-08T23:11:40.994Z,18.82
2023-08-08T23:31:42.771Z,19.37
2023-08-08T23:35:37.724Z,19.39
2023-08-08T23:45:37.698Z,19.54
2023-08-08T23:48:34.955Z,19.59
2023-08-08T23:51:03.056Z,19.59
2023-08-08T23:53:35.409Z,19.47
2023-08-08T23:56:37.542Z,19.38
2023-08-08T23:59:42.694Z,19.33
